EDNY Airport Information

Runway Information
Runway 06 Length 7729 ft width 148 ft
Elevation 1334 ft Threshold 885 ft Heading 60
Runway 24 Length 7729 ft Width 148 ft
Elevation 1367 ft Threshold 675 ft Heading 240
Airport Frequencies
Type APP Name ZURICH ARR Frequency 119.925 MHZ
Type ATIS Name ATIS Frequency 129.6 MHZ
Type INFO Name INFO Frequency 122.5 MHZ
Type RDO Name MUNCHEN IN Frequency 126.95 MHZ
Type TWR Name TWR Frequency 120.075 MHZ
Airport Navaids
Type NDB Name Friedrichshafen Frequency 473 KHZ
Type DME Name Friedrichshafen Frequency 112600 KHZ
Airport Weather Information & NOTAM
ADDS - METARS form results

(0622 UTC 24 May 2018)
 
METAR text: EDNY 240550Z VRB02KT 9999 FEW010 OVC019 15/14 Q1019
Conditions at: EDNY (FRIEDRICHSHAFEN , DE) observed 0550 UTC 24 May 2018
Temperature: 15.0°C (59°F)
Dewpoint: 14.0°C (57°F) [RH = 94%]
Pressure (altimeter): 30.09 inches Hg (1019.0 mb)
Winds: variable direction winds at 2 MPH (2 knots; 1.0 m/s)
Visibility: 6 or more miles (10+ km)
Ceiling: 1900 feet AGL
Clouds: few clouds at 1000 feet AGL
overcast cloud deck at 1900 feet AGL
Weather: no significant weather observed at this time